Time;durP1;ratioP1;P1;durP2;ratioP2;P2;SDS_P1;SDS_P2;PMS_P1;PMS_P2;Temp;Humidity;BMP_temperature;BMP_pressure;BME280_temperature;BME280_humidity;BME280_pressure;Samples;Min_cycle;Max_cycle;Signal;HPM_P1;HPM_P2
2024/01/11 00:00:25;;;;;;;9.43;5.13;;;-3.40;99.90;;;;;;5009909;28;20454;-61
2024/01/11 00:02:52;;;;;;;10.37;4.60;;;-3.40;99.90;;;;;;5002533;28;20472;-64
2024/01/11 00:05:22;;;;;;;11.17;5.40;;;-3.50;99.90;;;;;;5003083;28;20484;-64
2024/01/11 00:07:49;;;;;;;13.57;5.63;;;-3.50;99.90;;;;;;5034213;28;20468;-63
2024/01/11 00:10:17;;;;;;;10.10;5.73;;;-3.60;99.90;;;;;;5009107;28;20461;-63
2024/01/11 00:12:43;;;;;;;12.30;8.30;;;-3.50;99.90;;;;;;5004718;28;20460;-64
2024/01/11 00:15:12;;;;;;;10.90;5.47;;;-3.60;99.90;;;;;;5002396;28;20465;-64
2024/01/11 00:17:41;;;;;;;15.37;6.27;;;-3.60;99.90;;;;;;5003995;28;20459;-62
2024/01/11 00:20:09;;;;;;;10.37;6.17;;;-3.60;99.90;;;;;;5015043;28;20436;-63
2024/01/11 00:22:36;;;;;;;12.17;5.90;;;-3.60;99.90;;;;;;5014130;28;20465;-64
2024/01/11 00:25:03;;;;;;;13.07;6.03;;;-3.70;99.90;;;;;;5000475;28;20515;-63
2024/01/11 00:27:35;;;;;;;10.53;5.40;;;-3.70;99.90;;;;;;4994864;28;20947;-62
2024/01/11 00:30:06;;;;;;;9.00;4.87;;;-3.30;99.90;;;;;;5004318;28;20440;-62
2024/01/11 00:32:35;;;;;;;5.30;2.57;;;-3.70;99.90;;;;;;5015506;28;20502;-63
2024/01/11 00:35:03;;;;;;;6.70;3.23;;;-3.70;99.90;;;;;;5015107;28;20450;-63
2024/01/11 00:37:30;;;;;;;12.17;4.77;;;-3.80;99.90;;;;;;5013424;28;20488;-62
2024/01/11 00:39:57;;;;;;;5.77;3.57;;;-3.80;99.90;;;;;;5014506;28;20518;-63
2024/01/11 00:42:24;;;;;;;5.87;5.10;;;-3.90;99.90;;;;;;5011714;28;20494;-62
2024/01/11 00:44:51;;;;;;;10.50;4.70;;;-3.90;99.90;;;;;;5014375;28;20481;-63
2024/01/11 00:47:18;;;;;;;13.33;4.90;;;-4.00;99.90;;;;;;5014942;28;20429;-62
2024/01/11 00:49:46;;;;;;;6.57;3.90;;;-3.90;99.90;;;;;;5015633;28;20540;-61
2024/01/11 00:52:13;;;;;;;8.00;4.97;;;-4.00;99.90;;;;;;5012962;28;20464;-62
2024/01/11 00:54:40;;;;;;;9.73;4.07;;;-4.00;99.90;;;;;;5003696;28;20476;-60
2024/01/11 00:57:07;;;;;;;9.50;5.93;;;-4.00;99.90;;;;;;5006703;28;20516;-61
2024/01/11 00:59:34;;;;;;;7.87;4.83;;;-4.00;99.90;;;;;;5007491;28;20417;-61
2024/01/11 01:02:01;;;;;;;4.80;3.77;;;-4.00;99.90;;;;;;5007834;28;20438;-58
2024/01/11 01:04:28;;;;;;;7.20;3.50;;;-4.10;99.90;;;;;;5008041;28;20494;-61
2024/01/11 01:06:56;;;;;;;7.43;3.23;;;-3.80;99.90;;;;;;5012584;28;20451;-61
2024/01/11 01:09:23;;;;;;;9.20;6.13;;;-4.20;99.90;;;;;;5018992;28;20464;-61
2024/01/11 01:11:50;;;;;;;7.60;5.57;;;-4.30;99.90;;;;;;5019373;28;20470;-62
2024/01/11 01:14:17;;;;;;;7.47;4.50;;;-4.50;99.90;;;;;;5017740;28;20521;-62
2024/01/11 01:16:43;;;;;;;12.60;6.00;;;-4.50;99.90;;;;;;5018054;28;20435;-63
2024/01/11 01:19:10;;;;;;;9.17;4.00;;;-4.40;99.90;;;;;;5017093;28;20477;-64
2024/01/11 01:21:37;;;;;;;8.33;5.60;;;-4.00;99.90;;;;;;5017872;28;20441;-61
2024/01/11 01:24:06;;;;;;;10.40;4.13;;;-4.60;99.90;;;;;;5018479;28;20478;-63
2024/01/11 01:26:33;;;;;;;5.00;3.13;;;-4.80;99.90;;;;;;5017754;28;20483;-64
2024/01/11 01:28:59;;;;;;;5.30;4.30;;;-4.70;99.90;;;;;;5016876;28;20435;-63
2024/01/11 01:31:26;;;;;;;5.63;3.13;;;-4.60;99.90;;;;;;5018071;28;20483;-63
2024/01/11 01:33:53;;;;;;;8.37;3.20;;;-4.70;99.90;;;;;;5017524;28;20990;-64
2024/01/11 01:36:20;;;;;;;7.00;3.90;;;-4.70;99.90;;;;;;5017827;28;20424;-64
2024/01/11 01:38:47;;;;;;;3.93;2.87;;;-4.90;99.90;;;;;;5017571;28;20506;-62
2024/01/11 01:41:15;;;;;;;5.60;3.90;;;-4.80;99.90;;;;;;5017410;28;20469;-59
2024/01/11 01:43:42;;;;;;;7.57;3.87;;;-4.70;99.90;;;;;;5017535;28;20447;-62
2024/01/11 01:46:11;;;;;;;11.80;5.30;;;-4.70;99.90;;;;;;5017649;28;20515;-63
2024/01/11 01:48:38;;;;;;;6.70;3.80;;;-4.70;99.90;;;;;;5017761;28;20479;-62
2024/01/11 01:51:06;;;;;;;8.60;4.07;;;-4.70;99.90;;;;;;5017709;28;20483;-64
2024/01/11 01:53:33;;;;;;;11.13;5.00;;;-4.40;99.90;;;;;;5017457;28;20436;-64
2024/01/11 01:56:00;;;;;;;3.93;3.37;;;-2.20;99.90;;;;;;5018103;28;20456;-63
2024/01/11 01:58:32;;;;;;;6.03;2.80;;;-2.60;99.90;;;;;;5018155;28;20464;-64
2024/01/11 02:00:59;;;;;;;5.70;3.37;;;-4.60;99.90;;;;;;5017050;28;20434;-60
2024/01/11 02:03:31;;;;;;;6.20;3.87;;;-4.30;99.90;;;;;;5016253;28;20444;-62
2024/01/11 02:05:58;;;;;;;5.97;3.30;;;-4.60;99.90;;;;;;5017318;28;20468;-62
2024/01/11 02:08:28;;;;;;;8.77;3.00;;;-4.60;99.90;;;;;;5017070;28;20445;-64
2024/01/11 02:10:55;;;;;;;10.13;2.33;;;-4.60;99.90;;;;;;5016424;28;20429;-61
2024/01/11 02:13:22;;;;;;;7.93;5.30;;;-4.50;99.90;;;;;;5016243;28;20428;-64
2024/01/11 02:15:51;;;;;;;7.83;2.70;;;-4.60;99.90;;;;;;5016880;28;20456;-64
2024/01/11 02:18:18;;;;;;;12.40;3.10;;;-4.50;99.90;;;;;;5033146;23;20526;-65
2024/01/11 02:20:45;;;;;;;7.27;4.07;;;-4.50;99.90;;;;;;5035316;28;20454;-65
2024/01/11 02:23:19;;;;;;;8.30;4.37;;;-4.60;99.90;;;;;;5034192;28;20459;-64
2024/01/11 02:25:47;;;;;;;5.30;2.23;;;-4.50;99.90;;;;;;5033699;28;20869;-64
2024/01/11 02:28:18;;;;;;;5.50;2.00;;;-4.80;99.90;;;;;;5033776;28;20448;-64
2024/01/11 02:30:45;;;;;;;6.20;3.63;;;-4.40;99.90;;;;;;5034226;28;20471;-62
2024/01/11 02:33:15;;;;;;;5.70;2.70;;;-4.40;99.90;;;;;;5033830;28;20427;-61
2024/01/11 02:35:46;;;;;;;6.37;3.07;;;-4.20;99.90;;;;;;5033175;28;20951;-65
2024/01/11 02:38:15;;;;;;;2.43;2.23;;;-4.90;99.90;;;;;;5032311;28;20494;-64
2024/01/11 02:40:44;;;;;;;5.67;3.33;;;-4.50;99.90;;;;;;5034349;28;20443;-64
2024/01/11 02:43:13;;;;;;;6.60;2.40;;;-4.60;99.90;;;;;;5034315;28;20456;-65
2024/01/11 02:45:40;;;;;;;5.33;3.37;;;-4.40;99.90;;;;;;5034170;28;20467;-66
2024/01/11 02:48:07;;;;;;;6.60;3.20;;;-4.40;99.90;;;;;;5034759;28;20451;-65
2024/01/11 02:50:34;;;;;;;5.43;3.93;;;-4.40;99.90;;;;;;5034698;28;20463;-65
2024/01/11 02:53:00;;;;;;;3.43;3.00;;;-4.50;99.90;;;;;;5034912;28;20423;-64
2024/01/11 02:55:30;;;;;;;5.63;3.03;;;-4.50;99.90;;;;;;5035267;28;20455;-65
2024/01/11 02:57:57;;;;;;;4.33;2.20;;;-4.60;99.90;;;;;;5035557;28;20471;-62
2024/01/11 03:00:25;;;;;;;4.53;2.67;;;-4.50;99.90;;;;;;5036622;28;20463;-64
2024/01/11 03:02:52;;;;;;;8.00;2.73;;;-4.50;99.90;;;;;;5035053;28;20430;-62
2024/01/11 03:05:21;;;;;;;4.07;2.83;;;-4.70;99.90;;;;;;5035391;28;20470;-62
2024/01/11 03:07:47;;;;;;;6.40;4.60;;;-3.50;99.90;;;;;;5035579;28;20451;-65
2024/01/11 03:10:14;;;;;;;9.53;3.33;;;-4.70;99.90;;;;;;5034854;28;20438;-64
2024/01/11 03:12:44;;;;;;;7.10;3.17;;;-4.70;99.90;;;;;;5034803;28;20443;-65
2024/01/11 03:15:13;;;;;;;11.17;3.80;;;-4.70;99.90;;;;;;5034597;28;20937;-65
2024/01/11 03:17:41;;;;;;;3.70;1.47;;;-4.50;99.90;;;;;;5034636;28;20470;-65
2024/01/11 03:20:09;;;;;;;6.80;2.87;;;-4.70;99.90;;;;;;5035547;28;20446;-66
2024/01/11 03:22:35;;;;;;;6.73;2.83;;;-4.70;99.90;;;;;;5036172;28;20451;-63
2024/01/11 03:25:02;;;;;;;10.27;3.53;;;-4.70;99.90;;;;;;5036614;28;20459;-63
2024/01/11 03:27:29;;;;;;;5.27;2.63;;;-4.80;99.90;;;;;;5037517;28;20519;-62
2024/01/11 03:29:56;;;;;;;3.53;2.60;;;-4.90;99.90;;;;;;5037206;28;20477;-64
2024/01/11 03:32:27;;;;;;;13.23;3.80;;;-5.00;99.90;;;;;;5036550;28;20446;-64
2024/01/11 03:35:02;;;;;;;3.80;2.47;;;-4.90;99.90;;;;;;5035772;28;20451;-65
2024/01/11 03:37:29;;;;;;;9.53;3.50;;;-4.80;99.90;;;;;;5034075;28;20489;-63
2024/01/11 03:39:56;;;;;;;3.17;1.70;;;-4.90;99.90;;;;;;5034322;28;20459;-62
2024/01/11 03:42:23;;;;;;;3.87;3.13;;;-4.80;99.90;;;;;;5034299;28;20497;-62
2024/01/11 03:44:50;;;;;;;9.23;2.60;;;-4.80;99.90;;;;;;5034033;28;20988;-64
2024/01/11 03:47:17;;;;;;;8.93;3.03;;;-3.30;99.90;;;;;;5033966;28;20483;-63
2024/01/11 03:49:44;;;;;;;3.47;2.60;;;-4.90;99.90;;;;;;5033760;28;20904;-63
2024/01/11 03:52:12;;;;;;;1.90;1.60;;;-4.90;99.90;;;;;;5033805;28;20498;-64
2024/01/11 03:54:39;;;;;;;8.43;1.87;;;-4.80;99.90;;;;;;5033041;28;20463;-65
2024/01/11 03:57:06;;;;;;;10.03;4.63;;;-4.80;99.90;;;;;;5033776;28;20448;-64
2024/01/11 03:59:33;;;;;;;5.20;1.73;;;-4.20;99.90;;;;;;5034397;28;20436;-64
2024/01/11 04:02:00;;;;;;;4.20;3.80;;;-4.80;99.90;;;;;;5035228;28;20467;-66
2024/01/11 04:04:27;;;;;;;5.00;2.37;;;-4.70;99.90;;;;;;5034516;28;20471;-62
2024/01/11 04:06:54;;;;;;;3.67;3.00;;;-4.60;99.90;;;;;;5033724;28;20814;-65
2024/01/11 04:09:22;;;;;;;8.03;3.80;;;-4.60;99.90;;;;;;5033808;28;20447;-63
2024/01/11 04:11:49;;;;;;;3.67;2.30;;;-4.40;99.90;;;;;;5034247;28;20475;-64
2024/01/11 04:14:16;;;;;;;14.13;3.40;;;-3.90;99.90;;;;;;5034139;28;20450;-65
2024/01/11 04:16:43;;;;;;;7.67;3.93;;;-4.50;99.90;;;;;;5035128;28;20443;-62
2024/01/11 04:19:10;;;;;;;8.30;2.23;;;-4.40;99.90;;;;;;5034138;28;20458;-63
2024/01/11 04:21:38;;;;;;;14.43;5.50;;;-4.40;99.90;;;;;;5033661;28;20450;-61
2024/01/11 04:24:06;;;;;;;8.23;3.50;;;-4.40;99.90;;;;;;5033739;28;20535;-63
2024/01/11 04:26:34;;;;;;;2.60;1.70;;;-4.20;99.90;;;;;;5034323;28;20494;-64
2024/01/11 04:29:01;;;;;;;9.53;3.27;;;-4.30;99.90;;;;;;5031382;28;20436;-65
2024/01/11 04:31:28;;;;;;;8.27;3.30;;;-3.70;99.90;;;;;;5014774;28;20475;-64
2024/01/11 04:33:56;;;;;;;6.70;2.90;;;-3.70;99.90;;;;;;5015455;28;20459;-63
2024/01/11 04:36:24;;;;;;;16.13;5.00;;;-4.20;99.90;;;;;;5016000;28;20454;-63
2024/01/11 04:38:51;;;;;;;9.03;3.90;;;-4.10;99.90;;;;;;5036230;28;20562;-63
2024/01/11 04:41:18;;;;;;;9.10;4.93;;;-4.00;99.90;;;;;;5037393;28;20457;-63
2024/01/11 04:43:47;;;;;;;8.50;4.37;;;-4.00;99.90;;;;;;5037516;28;20443;-63
2024/01/11 04:46:17;;;;;;;9.07;4.40;;;-3.90;99.90;;;;;;5037098;28;20467;-63
2024/01/11 04:48:44;;;;;;;11.37;5.83;;;-3.90;99.90;;;;;;5037072;28;20452;-68
2024/01/11 04:51:11;;;;;;;9.50;3.97;;;-3.80;99.90;;;;;;5036813;28;20450;-65
2024/01/11 04:53:39;;;;;;;11.70;4.60;;;-3.70;99.90;;;;;;5036876;28;20459;-63
2024/01/11 04:56:07;;;;;;;7.73;3.60;;;-2.10;99.90;;;;;;5036701;28;20457;-64
2024/01/11 04:58:34;;;;;;;16.03;5.80;;;-3.70;99.90;;;;;;5036745;28;20480;-64
2024/01/11 05:01:02;;;;;;;12.17;5.43;;;-3.60;99.90;;;;;;5036619;28;20495;-64
2024/01/11 05:03:32;;;;;;;6.83;4.17;;;-3.50;99.90;;;;;;5038010;28;20513;-64
2024/01/11 05:05:59;;;;;;;13.10;4.90;;;-3.50;99.90;;;;;;5037930;28;20467;-64
2024/01/11 05:08:33;;;;;;;15.50;5.70;;;-3.50;99.90;;;;;;5037068;28;20458;-61
2024/01/11 05:11:02;;;;;;;15.97;5.60;;;-3.40;99.90;;;;;;5037915;28;20474;-63
2024/01/11 05:13:30;;;;;;;9.53;3.80;;;-1.40;99.90;;;;;;5036897;28;20456;-64
2024/01/11 05:16:02;;;;;;;12.47;5.10;;;-3.30;99.90;;;;;;5036771;28;20439;-64
2024/01/11 05:18:31;;;;;;;10.83;4.80;;;-3.30;99.90;;;;;;5036869;28;20476;-63
2024/01/11 05:21:02;;;;;;;11.33;4.57;;;-3.40;99.90;;;;;;5037906;28;20443;-64
2024/01/11 05:23:34;;;;;;;12.23;5.20;;;-3.20;99.90;;;;;;5037389;28;20446;-62
2024/01/11 05:26:01;;;;;;;8.03;3.97;;;-3.00;99.90;;;;;;5036479;28;20451;-63
2024/01/11 05:28:28;;;;;;;11.23;4.03;;;-3.30;99.90;;;;;;5036050;28;20479;-64
2024/01/11 05:30:57;;;;;;;10.10;5.90;;;-3.30;99.90;;;;;;5036952;28;20485;-62
2024/01/11 05:33:25;;;;;;;8.30;3.70;;;-2.90;99.90;;;;;;5036022;28;20468;-64
2024/01/11 05:35:55;;;;;;;16.10;5.83;;;-3.10;99.90;;;;;;5036657;28;20454;-63
2024/01/11 05:38:22;;;;;;;14.77;7.37;;;-3.10;99.90;;;;;;5037470;28;20465;-65
2024/01/11 05:40:49;;;;;;;9.07;5.70;;;-3.00;99.90;;;;;;5038022;28;20451;-64
2024/01/11 05:43:15;;;;;;;16.73;5.50;;;-2.40;99.90;;;;;;5037682;28;20467;-64
2024/01/11 05:45:45;;;;;;;19.60;6.60;;;-2.90;99.90;;;;;;5037625;28;20535;-63
2024/01/11 05:48:16;;;;;;;14.43;5.73;;;-2.80;99.90;;;;;;5036175;28;20487;-62
2024/01/11 05:50:44;;;;;;;20.37;4.53;;;-2.90;99.90;;;;;;5035647;28;20472;-63
2024/01/11 05:53:14;;;;;;;15.03;5.73;;;-2.70;99.90;;;;;;5035403;28;20452;-65
2024/01/11 05:55:41;;;;;;;10.30;3.63;;;-2.70;99.90;;;;;;5035551;28;20443;-64
2024/01/11 05:58:08;;;;;;;16.93;5.37;;;-2.50;99.90;;;;;;5035759;28;20772;-63
2024/01/11 06:00:35;;;;;;;12.63;5.57;;;-2.60;99.90;;;;;;5035746;28;20479;-64
2024/01/11 06:03:02;;;;;;;15.67;4.97;;;-2.60;99.90;;;;;;5035097;28;20553;-62
2024/01/11 06:05:29;;;;;;;10.07;4.03;;;-2.60;99.90;;;;;;5035681;28;20441;-65
2024/01/11 06:07:57;;;;;;;18.50;9.13;;;-2.40;99.90;;;;;;5035567;28;20486;-63
2024/01/11 06:10:24;;;;;;;15.50;6.37;;;-2.70;99.90;;;;;;5035142;28;20472;-64
2024/01/11 06:12:53;;;;;;;12.70;4.60;;;-3.20;99.90;;;;;;5035524;28;20459;-64
2024/01/11 06:15:20;;;;;;;19.33;5.87;;;-2.60;99.90;;;;;;5035940;28;20435;-62
2024/01/11 06:17:49;;;;;;;10.03;6.17;;;-2.70;99.90;;;;;;5034843;28;20464;-63
2024/01/11 06:20:22;;;;;;;11.17;4.73;;;-2.60;99.90;;;;;;5034368;28;20459;-63
2024/01/11 06:22:57;;;;;;;27.00;7.13;;;-2.40;99.90;;;;;;5034773;28;20415;-64
2024/01/11 06:25:25;;;;;;;15.63;6.67;;;-2.50;99.90;;;;;;5033637;28;20510;-64
2024/01/11 06:27:52;;;;;;;10.00;4.73;;;-2.50;99.90;;;;;;5034851;28;20491;-63
2024/01/11 06:30:45;;;;;;;;;;;;;;;;;;;;;
2024/01/11 06:33:12;;;;;;;13.27;4.30;;;-2.20;99.90;;;;;;5033410;28;20480;-64
2024/01/11 06:35:39;;;;;;;12.33;6.00;;;-2.40;99.90;;;;;;5033374;28;20457;-64
2024/01/11 06:38:07;;;;;;;17.63;6.60;;;-2.40;99.90;;;;;;5032777;28;20466;-64
2024/01/11 06:40:35;;;;;;;9.70;5.33;;;-2.30;99.90;;;;;;5034332;28;20534;-63
2024/01/11 06:43:06;;;;;;;21.40;8.13;;;-2.00;99.90;;;;;;5033954;28;20461;-64
2024/01/11 06:45:33;;;;;;;16.73;6.87;;;-2.40;99.90;;;;;;5034557;28;20569;-61
2024/01/11 06:48:00;;;;;;;18.73;6.57;;;-2.00;99.90;;;;;;5034555;28;20473;-63
2024/01/11 06:50:27;;;;;;;16.07;5.73;;;-2.20;99.90;;;;;;5033521;28;20495;-64
2024/01/11 06:52:53;;;;;;;12.73;6.50;;;-2.50;99.90;;;;;;5034332;28;20448;-65
2024/01/11 06:55:20;;;;;;;11.00;5.67;;;-2.10;99.90;;;;;;5034253;28;20479;-65
2024/01/11 06:57:51;;;;;;;14.47;7.40;;;-2.10;99.90;;;;;;5034218;28;20464;-63
2024/01/11 07:00:19;;;;;;;15.37;4.77;;;-2.10;99.90;;;;;;5033436;28;20464;-63
2024/01/11 07:02:46;;;;;;;22.40;8.40;;;-2.10;99.90;;;;;;5033684;28;20436;-63
2024/01/11 07:05:14;;;;;;;16.17;7.10;;;-2.10;99.90;;;;;;5031038;28;20448;-63
2024/01/11 07:07:41;;;;;;;18.77;7.50;;;-1.90;99.90;;;;;;5019550;28;20508;-65
2024/01/11 07:10:09;;;;;;;18.57;7.00;;;-1.70;99.90;;;;;;5024892;28;20579;-64
2024/01/11 07:12:37;;;;;;;21.10;6.70;;;-2.00;99.90;;;;;;5024998;28;20443;-64
2024/01/11 07:15:09;;;;;;;22.80;7.27;;;-1.90;99.90;;;;;;5024244;28;20465;-63
2024/01/11 07:17:36;;;;;;;12.93;5.53;;;-1.90;99.90;;;;;;5022135;28;20416;-63
2024/01/11 07:20:04;;;;;;;17.43;6.60;;;-1.90;99.90;;;;;;5023532;28;20441;-63
2024/01/11 07:22:31;;;;;;;14.03;7.07;;;-1.90;99.90;;;;;;5027024;28;20835;-62
2024/01/11 07:25:01;;;;;;;16.17;6.70;;;-1.80;99.90;;;;;;5017352;28;20444;-62
2024/01/11 07:27:28;;;;;;;15.57;7.97;;;-1.50;99.90;;;;;;5022378;28;20699;-64
2024/01/11 07:29:55;;;;;;;14.87;7.23;;;-1.30;99.90;;;;;;5020855;28;20479;-65
2024/01/11 07:32:24;;;;;;;16.87;7.73;;;-1.70;99.90;;;;;;5030228;28;20453;-65
2024/01/11 07:34:51;;;;;;;17.47;7.10;;;-1.70;99.90;;;;;;5033793;28;20487;-54
2024/01/11 07:37:20;;;;;;;28.57;8.33;;;-1.60;99.90;;;;;;5026464;28;20444;-52
2024/01/11 07:39:47;;;;;;;23.20;9.30;;;-1.60;99.90;;;;;;5018356;28;20447;-51
2024/01/11 07:42:16;;;;;;;21.33;7.97;;;-1.60;99.90;;;;;;5027431;28;20476;-65
2024/01/11 07:44:45;;;;;;;26.43;9.13;;;-1.60;99.90;;;;;;5033491;28;20452;-62
2024/01/11 07:47:12;;;;;;;12.00;6.53;;;-1.60;99.90;;;;;;5032953;28;20847;-65
2024/01/11 07:49:40;;;;;;;19.10;5.93;;;-1.50;99.90;;;;;;5034590;28;20484;-64
2024/01/11 07:52:07;;;;;;;21.20;7.50;;;-1.60;99.90;;;;;;5030962;28;20468;-63
2024/01/11 07:54:34;;;;;;;18.23;7.33;;;-1.60;99.90;;;;;;5017765;28;20495;-65
2024/01/11 07:57:04;;;;;;;25.67;7.60;;;-1.60;99.90;;;;;;5015948;28;20420;-64
2024/01/11 07:59:35;;;;;;;17.53;7.20;;;-0.70;99.90;;;;;;5016676;28;20526;-61
2024/01/11 08:02:03;;;;;;;15.40;6.87;;;-1.80;99.90;;;;;;5016769;28;20461;-63
2024/01/11 08:04:32;;;;;;;10.40;5.93;;;-1.60;99.90;;;;;;5016072;28;20451;-65
2024/01/11 08:07:06;;;;;;;16.97;6.60;;;-1.50;99.90;;;;;;5015136;28;20480;-65
2024/01/11 08:09:33;;;;;;;18.83;7.47;;;-1.70;99.90;;;;;;5014335;28;20460;-65
2024/01/11 08:12:06;;;;;;;13.90;6.80;;;-1.70;99.90;;;;;;5012707;28;20457;-64
2024/01/11 08:14:33;;;;;;;13.73;6.80;;;-1.70;99.90;;;;;;5018131;28;20465;-64
2024/01/11 08:17:01;;;;;;;12.73;7.70;;;-1.70;99.90;;;;;;5026473;28;20448;-65
2024/01/11 08:19:28;;;;;;;27.33;7.90;;;-1.80;99.90;;;;;;5024494;28;20914;-65
2024/01/11 08:21:57;;;;;;;26.33;7.33;;;-1.40;99.90;;;;;;5023665;28;20444;-65
2024/01/11 08:24:25;;;;;;;15.33;7.30;;;-1.80;99.90;;;;;;5024488;28;20453;-65
2024/01/11 08:26:55;;;;;;;18.37;7.23;;;-1.90;99.90;;;;;;5022910;28;20455;-65
2024/01/11 08:29:22;;;;;;;12.73;7.17;;;-1.70;99.90;;;;;;5023101;28;20440;-65
2024/01/11 08:31:49;;;;;;;20.53;7.97;;;-1.80;99.90;;;;;;5014598;28;20563;-65
2024/01/11 08:34:16;;;;;;;19.70;7.33;;;-1.70;99.90;;;;;;5023055;28;20474;-65
2024/01/11 08:36:43;;;;;;;17.97;9.07;;;-1.70;99.90;;;;;;5022935;28;20447;-65
2024/01/11 08:39:11;;;;;;;20.30;8.97;;;-1.70;99.90;;;;;;5023470;28;20445;-64
2024/01/11 08:41:40;;;;;;;13.90;5.93;;;-1.70;99.90;;;;;;5022678;28;20564;-64
2024/01/11 08:44:10;;;;;;;13.37;8.07;;;-1.70;99.90;;;;;;5023280;28;20450;-65
2024/01/11 08:46:37;;;;;;;12.43;4.50;;;-1.40;99.90;;;;;;5021006;28;20448;-65
2024/01/11 08:49:04;;;;;;;7.03;5.10;;;-1.60;99.90;;;;;;5021216;28;20500;-65
2024/01/11 08:51:33;;;;;;;13.30;6.57;;;-1.70;99.90;;;;;;5023660;28;20443;-65
2024/01/11 08:53:59;;;;;;;21.90;7.53;;;-1.70;99.90;;;;;;5027801;28;21012;-65
2024/01/11 08:56:28;;;;;;;13.33;6.20;;;-1.70;99.90;;;;;;5023110;28;20440;-65
2024/01/11 08:59:01;;;;;;;19.13;7.83;;;-1.80;99.90;;;;;;5025836;28;20977;-65
2024/01/11 09:01:35;;;;;;;28.20;11.00;;;-1.70;99.90;;;;;;5023759;28;20477;-63
2024/01/11 09:04:09;;;;;;;23.60;7.37;;;-1.60;99.90;;;;;;5021411;28;20518;-66
2024/01/11 09:06:36;;;;;;;11.03;6.87;;;-1.60;99.90;;;;;;5025493;28;20459;-64
2024/01/11 09:09:03;;;;;;;14.63;8.20;;;-1.40;99.90;;;;;;5019682;28;20488;-65
2024/01/11 09:11:33;;;;;;;5.30;3.00;;;-1.50;99.90;;;;;;5011221;28;20450;-66
2024/01/11 09:14:06;;;;;;;10.17;4.70;;;-1.50;99.90;;;;;;5023136;28;20440;-65
2024/01/11 09:16:33;;;;;;;23.43;6.17;;;-1.60;99.90;;;;;;5020116;28;20434;-62
2024/01/11 09:19:01;;;;;;;17.73;6.67;;;-1.40;99.90;;;;;;5022562;28;20456;-65
2024/01/11 09:21:28;;;;;;;11.20;5.97;;;-1.30;99.90;;;;;;5025769;28;20475;-65
2024/01/11 09:23:57;;;;;;;17.90;7.30;;;-1.40;99.90;;;;;;5026287;28;20457;-64
2024/01/11 09:26:24;;;;;;;13.30;6.73;;;-1.40;99.90;;;;;;5025237;28;20444;-65
2024/01/11 09:28:51;;;;;;;29.97;8.67;;;-1.50;99.90;;;;;;5024739;28;20483;-65
2024/01/11 09:31:19;;;;;;;13.60;5.87;;;-1.40;99.90;;;;;;5025440;28;20549;-65
2024/01/11 09:33:52;;;;;;;25.77;6.70;;;-1.30;99.90;;;;;;5028023;28;20508;-64
2024/01/11 09:36:22;;;;;;;7.40;3.87;;;-1.30;99.90;;;;;;5023491;28;20438;-63
2024/01/11 09:38:49;;;;;;;13.40;8.87;;;-1.30;99.90;;;;;;5025373;28;20433;-65
2024/01/11 09:41:17;;;;;;;16.20;5.53;;;-1.30;99.90;;;;;;5026446;28;20478;-64
2024/01/11 09:43:55;;;;;;;14.90;6.03;;;-1.30;99.90;;;;;;5017532;28;20499;-64
2024/01/11 09:46:29;;;;;;;19.23;7.07;;;-1.30;99.90;;;;;;5049584;28;20436;-63
2024/01/11 09:48:58;;;;;;;19.60;8.03;;;-1.20;99.90;;;;;;5056057;28;20466;-65
2024/01/11 09:51:27;;;;;;;17.13;6.60;;;-1.30;99.90;;;;;;5055876;28;20468;-66
2024/01/11 09:53:57;;;;;;;20.67;6.00;;;-1.30;99.90;;;;;;5019477;28;20463;-64
2024/01/11 09:56:27;;;;;;;11.23;5.43;;;-1.30;99.90;;;;;;5035888;28;20496;-66
2024/01/11 09:58:57;;;;;;;17.83;8.20;;;-0.90;99.90;;;;;;5036722;28;20433;-65
2024/01/11 10:01:29;;;;;;;24.27;7.67;;;-1.30;99.90;;;;;;5036713;28;20457;-66
2024/01/11 10:03:56;;;;;;;27.07;8.77;;;-1.30;99.90;;;;;;5038062;28;20446;-65
2024/01/11 10:06:26;;;;;;;22.93;9.57;;;-1.30;99.90;;;;;;5021626;28;20475;-65
2024/01/11 10:08:53;;;;;;;14.63;7.17;;;-1.40;99.90;;;;;;5036177;28;20533;-63
2024/01/11 10:11:22;;;;;;;16.70;6.43;;;-1.40;99.90;;;;;;5035935;28;20467;-64
2024/01/11 10:13:49;;;;;;;23.97;10.20;;;-1.40;99.90;;;;;;5038636;28;20444;-66
2024/01/11 10:16:16;;;;;;;19.90;7.13;;;-1.40;99.90;;;;;;5021079;28;20451;-65
2024/01/11 10:18:44;;;;;;;11.07;6.47;;;-1.40;99.90;;;;;;5016267;28;20521;-64
2024/01/11 10:21:13;;;;;;;16.90;7.70;;;-1.30;99.90;;;;;;5015178;28;20516;-64
2024/01/11 10:23:43;;;;;;;18.57;8.73;;;-1.40;99.90;;;;;;5025034;28;20468;-66
2024/01/11 10:26:11;;;;;;;27.73;7.20;;;-1.40;99.90;;;;;;5032251;28;20504;-64
2024/01/11 10:28:41;;;;;;;16.97;7.53;;;-1.40;99.90;;;;;;5027159;28;20490;-63
2024/01/11 10:31:10;;;;;;;25.13;7.97;;;-1.50;99.90;;;;;;5026401;28;20448;-65
2024/01/11 10:33:37;;;;;;;19.90;8.73;;;-1.40;99.90;;;;;;5032886;28;20445;-63
2024/01/11 10:36:07;;;;;;;26.20;10.80;;;-1.50;99.90;;;;;;5025558;28;20459;-64
2024/01/11 10:38:38;;;;;;;17.50;7.90;;;-1.50;99.90;;;;;;5032587;28;20527;-64
2024/01/11 10:41:11;;;;;;;23.67;8.20;;;-1.40;99.90;;;;;;5034476;28;20441;-65
2024/01/11 10:43:41;;;;;;;19.30;10.70;;;-1.40;99.90;;;;;;5034318;28;20471;-65
2024/01/11 10:46:13;;;;;;;22.03;9.27;;;-1.30;99.90;;;;;;5033800;28;20454;-64
2024/01/11 10:48:44;;;;;;;20.63;8.10;;;-1.20;99.90;;;;;;5025871;28;20469;-64
2024/01/11 10:51:18;;;;;;;15.27;6.60;;;-1.20;99.90;;;;;;5025735;28;20426;-65
2024/01/11 10:53:50;;;;;;;14.80;6.73;;;-1.20;99.90;;;;;;5020972;28;20448;-64
2024/01/11 10:56:18;;;;;;;20.03;9.43;;;0.00;99.90;;;;;;5025196;28;20468;-65
2024/01/11 10:58:49;;;;;;;14.37;9.40;;;-1.30;99.90;;;;;;5026184;28;20440;-65
2024/01/11 11:01:18;;;;;;;26.83;10.97;;;-1.30;99.90;;;;;;5025309;28;20468;-66
2024/01/11 11:03:49;;;;;;;24.93;10.00;;;-1.30;99.90;;;;;;5025804;28;20460;-65
2024/01/11 11:06:21;;;;;;;12.47;7.60;;;-1.30;99.90;;;;;;5014268;28;20442;-67
2024/01/11 11:08:51;;;;;;;23.97;7.10;;;-1.20;99.90;;;;;;5022675;28;20817;-65
2024/01/11 11:11:24;;;;;;;19.87;7.57;;;-1.30;99.90;;;;;;5032300;28;20494;-66
2024/01/11 11:13:52;;;;;;;21.27;8.20;;;-1.30;99.90;;;;;;5032340;28;20480;-64
2024/01/11 11:16:22;;;;;;;20.83;6.37;;;-1.30;99.90;;;;;;5032405;28;20443;-65
2024/01/11 11:18:53;;;;;;;20.20;6.77;;;-1.30;99.90;;;;;;5032936;28;20463;-65
2024/01/11 11:21:24;;;;;;;20.83;8.17;;;-1.40;99.90;;;;;;5033019;28;20497;-64
2024/01/11 11:23:51;;;;;;;23.10;9.17;;;-1.30;99.90;;;;;;5032513;28;20444;-64
2024/01/11 11:26:18;;;;;;;19.63;7.20;;;-1.50;99.90;;;;;;5032798;28;20464;-64
2024/01/11 11:28:45;;;;;;;17.77;9.53;;;-1.10;99.90;;;;;;5032116;28;20491;-65
2024/01/11 11:31:13;;;;;;;29.90;10.20;;;-1.40;99.90;;;;;;5032969;28;20460;-65
2024/01/11 11:33:41;;;;;;;22.00;9.80;;;-1.30;99.90;;;;;;5034416;28;20451;-66
2024/01/11 11:36:14;;;;;;;23.70;7.33;;;-1.20;99.90;;;;;;5035092;28;20467;-65
2024/01/11 11:38:42;;;;;;;20.93;11.07;;;-1.10;99.90;;;;;;5035296;28;20468;-64
2024/01/11 11:41:10;;;;;;;22.93;9.63;;;-1.30;99.90;;;;;;5034888;28;20476;-65
2024/01/11 11:43:37;;;;;;;26.30;10.73;;;-1.10;99.90;;;;;;5034829;28;20453;-67
2024/01/11 11:46:07;;;;;;;15.40;8.50;;;-1.10;99.90;;;;;;5034148;28;20486;-65
2024/01/11 11:48:52;;;;;;;22.83;11.97;;;-1.30;99.90;;;;;;5034023;28;20511;-64
2024/01/11 11:51:20;;;;;;;22.33;9.60;;;-0.80;99.90;;;;;;5034750;28;20535;-63
2024/01/11 11:53:53;;;;;;;10.83;5.67;;;-0.90;99.90;;;;;;5034487;28;20460;-65
2024/01/11 11:56:24;;;;;;;24.57;8.87;;;-0.80;99.90;;;;;;5034307;28;20456;-65
2024/01/11 11:58:54;;;;;;;16.07;9.80;;;-0.70;99.90;;;;;;5034120;28;20422;-65
2024/01/11 12:01:21;;;;;;;21.53;9.00;;;-0.60;99.90;;;;;;5034237;28;20481;-64
2024/01/11 12:03:49;;;;;;;20.67;8.13;;;-0.60;99.90;;;;;;5033889;28;20441;-64
2024/01/11 12:06:18;;;;;;;21.67;9.10;;;-0.60;99.90;;;;;;5033281;28;20473;-64
2024/01/11 12:08:46;;;;;;;28.33;7.53;;;-0.50;99.90;;;;;;5033284;28;20518;-64
2024/01/11 12:11:20;;;;;;;17.50;8.83;;;-0.40;99.90;;;;;;5033926;28;20456;-65
2024/01/11 12:13:48;;;;;;;23.07;8.00;;;-0.40;99.90;;;;;;5034647;28;20410;-64
2024/01/11 12:16:16;;;;;;;20.27;8.17;;;-0.30;99.90;;;;;;5035424;28;20457;-65
2024/01/11 12:18:43;;;;;;;20.80;7.33;;;-0.20;99.90;;;;;;5035230;28;20464;-65
2024/01/11 12:21:13;;;;;;;18.17;6.30;;;-0.30;99.90;;;;;;5036128;28;20474;-65
2024/01/11 12:23:41;;;;;;;8.77;5.03;;;-0.40;99.90;;;;;;5035250;28;20484;-64
2024/01/11 12:26:12;;;;;;;23.57;8.10;;;-0.30;99.90;;;;;;5034379;28;20473;-64
2024/01/11 12:28:41;;;;;;;17.70;7.23;;;-0.30;99.90;;;;;;5032935;28;20490;-64
2024/01/11 12:31:12;;;;;;;16.73;9.50;;;-0.30;99.90;;;;;;5033360;28;20452;-64
2024/01/11 12:33:43;;;;;;;12.67;6.10;;;0.80;99.90;;;;;;5033240;28;20529;-64
2024/01/11 12:36:12;;;;;;;18.90;7.67;;;-0.10;99.90;;;;;;5033129;28;20432;-66
2024/01/11 12:38:48;;;;;;;12.73;6.83;;;-0.10;99.90;;;;;;5034051;28;20441;-63
2024/01/11 12:41:18;;;;;;;19.53;8.10;;;-0.10;99.90;;;;;;5033970;28;20491;-65
2024/01/11 12:43:46;;;;;;;12.90;8.07;;;-0.50;99.90;;;;;;5034009;28;20448;-65
2024/01/11 12:46:19;;;;;;;15.60;6.47;;;0.00;99.90;;;;;;5034274;28;20452;-65